EDT,Max TemperatureF,Mean TemperatureF,Min TemperatureF,Max Dew PointF,MeanDew PointF,Min DewpointF,Max Humidity, Mean Humidity, Min Humidity, Max Sea Level PressureIn, Mean Sea Level PressureIn, Min Sea Level PressureIn, Max VisibilityMiles, Mean VisibilityMiles, Min VisibilityMiles, Max Wind SpeedMPH, Mean Wind SpeedMPH, Max Gust SpeedMPH,PrecipitationIn, CloudCover, Events, WindDirDegrees
2013-9-1,89,79,69,77,73,70,100,86,55,29.95,29.90,29.83,10,7,0,13,2,22,0.00,2,Fog-Rain-Thunderstorm,225
2013-9-2,89,80,71,81,74,68,100,91,49,29.94,29.89,29.84,10,8,2,8,1,,0.00,3,Rain,244
2013-9-3,91,80,68,77,71,64,100,85,43,29.98,29.89,29.85,10,7,0,8,1,,0.00,1,Fog-Rain,264
2013-9-4,89,76,64,77,67,64,100,82,48,30.10,30.05,29.98,10,8,3,8,1,,0.00,1,Rain,13
2013-9-5,89,76,62,77,68,63,100,82,40,30.14,30.09,30.06,10,7,1,7,1,,0.00,0,Rain,336
2013-9-6,84,73,62,70,63,55,100,78,37,30.19,30.13,30.08,10,8,1,9,2,16,0.00,0,Rain,43
2013-9-7,84,72,59,73,64,59,100,83,42,30.15,30.09,30.01,10,8,3,6,1,,0.00,1,Rain,347
2013-9-8,89,74,60,75,65,61,100,82,40,30.02,29.98,29.94,10,7,2,7,1,,0.00,0,Rain,343
2013-9-9,91,76,62,73,66,59,100,79,36,30.16,30.09,30.01,10,7,1,6,0,,0.00,0,Rain,69
2013-9-10,91,78,64,75,68,64,100,82,41,30.27,30.21,30.16,10,7,2,0,0,,0.00,0,Rain,-1
2013-9-11,89,76,62,77,67,63,100,84,40,30.24,30.18,30.11,10,6,1,0,0,,0.00,0,,-1
2013-9-12,89,76,64,72,67,64,100,81,46,30.11,29.99,29.88,10,7,2,10,1,18,0.00,0,Rain,229
2013-9-13,87,76,66,72,63,54,100,72,35,29.91,29.84,29.79,10,8,2,10,2,,0.00,1,Rain,341
2013-9-14,80,70,59,63,54,50,100,64,39,30.13,30.02,29.91,10,10,10,16,6,22,0.00,1,Rain,33
2013-9-15,86,72,59,72,64,59,100,82,43,30.22,30.16,30.11,10,10,10,7,1,,0.00,3,Rain,120
2013-9-16,87,78,68,75,69,57,100,81,35,30.16,30.12,30.05,10,9,2,8,1,,0.00,5,Rain,303
2013-9-17,78,69,60,66,59,54,94,69,42,30.31,30.23,30.16,10,10,10,10,5,17,0.00,4,,47
2013-9-18,77,65,53,63,55,50,100,78,41,30.31,30.24,30.18,10,10,10,7,2,,0.00,1,Rain,47
2013-9-19,78,66,53,70,59,54,100,85,47,30.21,30.16,30.10,10,10,2,5,0,,0.02,3,Rain,277
2013-9-20,86,72,59,77,66,59,100,89,48,30.11,30.03,29.94,10,8,3,5,0,,0.01,2,Rain,219
2013-9-21,77,70,64,73,69,64,100,95,74,29.95,29.83,29.65,10,7,2,10,1,17,0.18,2,Rain,191
2013-9-22,80,68,57,68,60,52,100,79,37,29.92,29.81,29.65,10,10,5,16,6,26,0.01,2,,353
2013-9-23,77,66,55,64,57,54,100,82,44,30.08,30.02,29.92,10,8,3,7,1,,0.00,2,Thunderstorm,43
2013-9-24,80,66,51,66,58,52,100,83,42,30.10,30.03,29.95,10,8,2,5,1,,0.00,4,,85
2013-9-25,68,65,62,68,64,61,100,99,78,29.96,29.92,29.88,10,6,1,6,1,,0.60,7,Rain,34
2013-9-26,77,67,57,64,59,54,100,83,44,30.04,29.95,29.89,10,7,1,13,2,16,0.04,3,Rain,16
2013-9-27,77,64,50,61,55,50,100,82,41,30.18,30.11,30.04,10,10,4,13,2,21,0.00,0,,30
2013-9-28,75,63,51,59,53,48,100,81,41,30.26,30.20,30.16,10,9,6,12,2,18,0.00,0,,37
2013-9-29,73,62,51,61,55,50,100,84,44,30.18,30.12,30.05,10,10,8,9,2,,0.00,4,Rain,37
2013-9-30,77,64,50,63,55,50,100,83,39,30.12,30.07,30.02,10,8,1,7,1,,0.00,0,Rain,30